Latest Coastal Weather Observations for Lockhart River

IDQ60701

Issued at 12:01 am EST Saturday 30 April 2016 (issued every 10 minutes, with the page automatically refreshed every 10 minutes)

About coastal observations | Map of coastal stations | Coastal observations for QLD | Marine services | Other Formats
Station Details ID: 028008 Name: LOCKHART RIVER AIRPORT Lat: -12.79 Lon: 143.30 Height: 18.5 m
Data from the previous 72 hours. | See also: Recent months at Lockhart River
Date/Time
EST
Temp

°C
Wind Pressure Rain
since 9am
mm
Weather Cloud Vis
km
Sea
Height
m
Swell
Dir
 
Speed
knots
Gust
knots
hPa Trend Height
m
Period
s
Dir
29/11:00pm 26.7 SE 7 9 1013.2 - 1.8 - Partly cloudy - - - - -
29/09:00pm 27.0 SE 6 7 1013.1 - 0.0 - Partly cloudy - - - - -
29/08:30pm 27.1 SE 7 9 1013.0 - 0.0 - Partly cloudy - - - - -
29/07:30pm 27.1 ESE 8 13 1012.2 - 0.0 - Partly cloudy - - - - -
29/06:00pm 27.6 SE 11 - 1010.9 - - - - - - - - -
29/04:30pm 28.2 ESE 10 15 1010.2 - 0.0 - Partly cloudy - - - - -
29/04:00pm 28.2 ESE 10 16 1010.1 - 0.0 - Partly cloudy - - - - -
29/03:00pm 28.8 ESE 13 19 1009.9 - 0.0 Fine Partly cloudy - - - - -
29/02:30pm 29.1 ESE 12 17 1010.2 - 0.0 - Partly cloudy - - - - -
29/02:00pm 29.5 ESE 11 16 1010.2 - 0.0 - Partly cloudy - - - - -
29/01:30pm 29.2 ESE 12 19 1010.7 - 0.0 - Partly cloudy - - - - -
29/01:00pm 29.9 ESE 11 19 1010.8 - 0.0 - Partly cloudy - - - - -
29/12:30pm 29.8 ESE 13 19 1011.3 - 0.0 - Partly cloudy - - - - -
29/12:00pm 29.8 ESE 13 20 1011.9 - 0.0 - Partly cloudy - - - - -
29/11:00am 29.4 ESE 14 22 1012.7 - 0.0 - Partly cloudy - - - - -
29/10:30am 29.6 ESE 11 18 1013.0 - 0.0 - Partly cloudy - - - - -
29/09:00am 26.7 SE 8 - 1012.9 - 8.0 Fine - - - - - -
29/08:30am 25.9 SE 9 12 1012.8 - 8.0 - Partly cloudy - - - - -
29/08:00am 25.8 ESE 6 8 1012.5 - 7.8 - Partly cloudy - - - - -
29/07:00am 26.0 SE 10 16 1011.9 - 7.6 - Partly cloudy - - - - -
29/06:00am 26.0 SE 7 - 1010.7 - - Fine - - - - - -
29/05:00am 25.8 SE 4 5 1010.2 - 6.6 - Partly cloudy - - - - -
29/03:00am 25.6 SE 10 13 1010.4 - 5.6 - Partly cloudy - - - - -
29/02:30am 26.0 SE 8 11 1010.6 - 5.6 - Partly cloudy - - - - -
29/12:00am 25.4 ESE 7 10 1011.9 - 5.2 - Partly cloudy - - - - -
 
Date/Time
EST
Temp

°C
Wind Pressure Rain
since 9am
mm
Weather Cloud Vis
km
Sea
Height
m
Swell
Dir
 
Speed
knots
Gust
knots
hPa Trend Height
m
Period
s
Dir
28/10:30pm 25.4 SE 7 9 1012.4 - 4.2 - Partly cloudy - - - - -
28/06:30pm 26.3 ESE 9 12 1010.2 - 1.2 - Partly cloudy - - - - -
28/04:30pm 27.7 E 6 9 1009.3 - 1.0 - Partly cloudy - - - - -
28/04:00pm 27.3 ESE 12 18 1009.3 - 0.8 - Partly cloudy - - - - -
28/03:00pm 28.4 ESE 13 18 1009.3 - 0.8 - Partly cloudy - - - - -
28/02:30pm 29.6 ESE 11 18 1009.4 - 0.8 - Partly cloudy - - - - -
28/02:00pm 28.5 ESE 14 21 1009.6 - 0.8 - Partly cloudy - - - - -
28/01:30pm 29.9 ESE 11 19 1009.9 - 0.8 - Partly cloudy - - - - -
28/01:00pm 29.5 E 12 16 1010.1 - 0.8 - Partly cloudy - - - - -
28/12:30pm 29.2 E 12 17 1010.5 - 0.8 - Partly cloudy - - - - -
28/12:00pm 29.3 ESE 13 20 1010.9 - 0.8 - Partly cloudy - - - - -
28/11:30am 28.8 ESE 13 19 1011.3 - 0.8 - Partly cloudy - - - - -
28/11:00am 28.6 ESE 12 18 1011.6 - 0.6 - Partly cloudy - - - - -
28/07:30am 25.2 SE 5 7 1010.6 - 2.6 - Partly cloudy - - - - -
28/07:00am 25.1 SE 7 10 1010.3 - 2.4 - Partly cloudy - - - - -
28/05:00am 24.9 SE 7 9 1009.6 - 1.8 - Partly cloudy - - - - -
28/04:00am 26.3 SE 8 11 1009.2 - 0.6 - Partly cloudy - - - - -
28/03:30am 26.3 SE 10 13 1009.3 - 0.6 - Partly cloudy - - - - -
28/03:00am 26.4 SE 9 15 1009.3 - 0.6 Fine Partly cloudy - - - - -
28/02:30am 26.1 SSE 9 13 1009.8 - 0.6 - Partly cloudy - - - - -
28/02:00am 25.9 SSE 8 11 1010.0 - 0.6 - Partly cloudy - - - - -
28/01:30am 25.8 SE 7 9 1010.4 - 0.6 - Partly cloudy - - - - -
28/01:00am 25.9 SE 10 15 1010.6 - 0.6 - Partly cloudy - - - - -
28/12:30am 26.1 SE 11 15 1010.8 - 0.6 - Partly cloudy - - - - -
28/12:00am 25.5 SE 9 15 1011.2 - 0.6 Fine Partly cloudy - - - - -
 
Date/Time
EST
Temp

°C
Wind Pressure Rain
since 9am
mm
Weather Cloud Vis
km
Sea
Height
m
Swell
Dir
 
Speed
knots
Gust
knots
hPa Trend Height
m
Period
s
Dir
27/11:30pm 26.5 SE 11 14 1011.3 - 0.4 - Partly cloudy - - - - -
27/11:00pm 26.0 SE 10 15 1011.5 - 0.4 - Partly cloudy - - - - -
27/10:30pm 26.6 SE 10 14 1011.5 - 0.4 - Partly cloudy - - - - -
27/10:00pm 26.6 SE 10 13 1011.4 - 0.4 - Partly cloudy - - - - -
27/09:30pm 26.3 SE 11 17 1011.5 - 0.4 - Partly cloudy - - - - -
27/09:00pm 26.4 SE 10 14 1011.2 - 0.4 Fine Partly cloudy - - - - -
27/08:30pm 26.2 SE 7 10 1011.0 - 0.4 - Partly cloudy - - - - -
27/08:00pm 25.8 SE 8 11 1010.6 - 0.4 - Partly cloudy - - - - -
27/07:30pm 25.7 ESE 8 11 1010.4 - 0.2 - Partly cloudy - - - - -
27/07:00pm 26.6 SSE 9 12 1010.1 - 0.0 - Partly cloudy - - - - -
27/06:30pm 27.4 SE 12 16 1009.8 - 0.0 - Partly cloudy - - - - -
27/06:00pm 27.6 SE 12 16 1009.6 - 0.0 Fine Partly cloudy - - - - -
27/05:30pm 27.9 SE 13 18 1009.4 - 0.0 - Partly cloudy - - - - -
27/05:00pm 28.2 SE 13 18 1009.2 - 0.0 - Partly cloudy - - - - -
27/04:30pm 28.6 SE 12 17 1009.0 - 0.0 - Partly cloudy - - - - -
27/04:00pm 29.1 SE 15 21 1008.9 - 0.0 - Partly cloudy - - - - -
27/03:30pm 29.9 SE 17 22 1009.0 - 0.0 - Partly cloudy - - - - -
27/03:00pm 29.6 ESE 15 23 1009.0 - 0.0 - Partly cloudy - - - - -
27/02:30pm 29.4 SE 15 22 1009.3 - 0.0 - Partly cloudy - - - - -
27/02:00pm 29.4 SE 15 21 1009.7 - 0.0 - Partly cloudy - - - - -
27/01:30pm 28.6 SE 15 21 1010.1 - 0.0 - Partly cloudy - - - - -
27/01:00pm 29.1 ESE 16 22 1010.5 - 0.0 - Partly cloudy - - - - -
27/12:30pm 29.6 SE 14 19 1010.8 - 0.0 - Partly cloudy - - - - -
27/12:00pm 30.0 ESE 16 23 1011.2 - 0.0 - Partly cloudy - - - - -
27/11:30am 29.3 SE 16 21 1011.5 - 0.0 - Partly cloudy - - - - -
27/11:00am 29.6 SE 16 22 1011.9 - 0.0 - Partly cloudy - - - - -
27/10:30am 29.3 SE 16 23 1012.0 - 0.0 - Partly cloudy - - - - -
27/10:00am 29.0 ESE 14 21 1012.0 - 0.0 - Partly cloudy - - - - -
27/09:30am 28.0 SE 13 19 1012.0 - 0.0 - Partly cloudy - - - - -
27/09:00am 27.7 SE 12 17 1011.9 - 5.2 - Partly cloudy - - - - -
27/08:30am 27.6 ESE 10 15 1011.7 - 5.2 - Partly cloudy - - - - -
27/08:00am 26.9 ESE 11 15 1011.5 - 5.2 - Partly cloudy - - - - -
27/07:30am 26.1 SE 7 10 1011.3 - 5.2 - Partly cloudy - - - - -
27/07:00am 25.2 SSE 5 7 1011.0 - 5.2 - Partly cloudy - - - - -
27/06:30am 25.2 SE 8 11 1010.8 - 5.2 - Partly cloudy - - - - -
27/06:00am 25.3 ESE 7 12 1010.5 - 5.2 - Partly cloudy - - - - -
27/05:30am 24.7 SE 6 9 1010.2 - 5.2 - Partly cloudy - - - - -
27/05:00am 24.2 SSE 4 7 1010.1 - 5.2 - Partly cloudy - - - - -
27/04:30am 24.0 CALM 0 2 1010.0 - 5.2 - Partly cloudy - - - - -
27/04:00am 23.9 SSE 4 6 1010.0 - 5.2 - Partly cloudy - - - - -
27/03:30am 24.1 S 3 5 1009.9 - 4.0 - Partly cloudy - - - - -
27/03:00am 24.2 S 4 6 1009.9 - 4.0 Fine Partly cloudy - - - - -
27/02:30am 24.1 SSE 5 7 1009.9 - 4.0 - Partly cloudy - - - - -
27/02:00am 24.3 SSE 6 8 1010.2 - 4.0 - Partly cloudy - - - - -
27/01:30am 24.1 SSE 5 8 1010.5 - 4.0 - Partly cloudy - - - - -
27/12:30am 24.3 SSE 6 8 1011.1 - 3.6 - Partly cloudy - - - - -

Other Formats:

Comma delimited format used in spreadsheet applications
http://www.bom.gov.au/fwo/IDQ60701/IDQ60701.94186.axf

JavaScript Object Notation format (JSON) in row-major order
http://www.bom.gov.au/fwo/IDQ60701/IDQ60701.94186.json